Terminal Aerodrome Forecast
Issued by NWS

Home | Current Version | Previous Version | Text Only | Print | Product List | Glossary On
Versions: 1 2 3 4 5 6 7 8 9 10 11 12 13 14 15 16 17 18 19 20 21 22 23 24 25
850
FTUS43 KAPX 210741 AAA
TAFPLN
TAF AMD
KPLN 210741Z 2108/2206 08003KT 1/4SM FG BKN002 OVC040
      TEMPO 2108/2110 1 1/2SM BR SCT002 OVC040
     FM211000 10003KT 3/4SM BR OVC002
     FM211500 11005KT 2SM -DZ BR OVC004
     FM220000 11004KT 1/2SM FG OVC002=

USA.gov is the U.S. government's official web portal to all federal, state and local government web resources and services.